Time;durP1;ratioP1;P1;durP2;ratioP2;P2;SDS_P1;SDS_P2;PMS_P1;PMS_P2;Temp;Humidity;BMP_temperature;BMP_pressure;BME280_temperature;BME280_humidity;BME280_pressure;Samples;Min_cycle;Max_cycle;Signal;HPM_P1;HPM_P2
2023/09/25 00:00:14;;;;;;;0.50;0.50;;;;;;;10.41;76.32;97571.53;29395;267;63005;-70
2023/09/25 00:00:46;;;;;;;0.50;0.50;;;;;;;10.39;76.01;97569.13;29394;220;64013;-55
2023/09/25 00:01:17;;;;;;;0.50;0.50;;;;;;;10.39;75.72;97562.87;29395;224;63005;-72
2023/09/25 00:01:49;;;;;;;0.50;0.50;;;;;;;10.38;75.44;97567.50;29395;260;63009;-54
2023/09/25 00:02:21;;;;;;;0.50;0.50;;;;;;;10.38;75.60;97561.25;29395;209;63005;-54
2023/09/25 00:02:53;;;;;;;0.40;0.40;;;;;;;10.37;75.33;97573.19;29395;226;63009;-72
2023/09/25 00:03:24;;;;;;;0.50;0.50;;;;;;;10.37;75.36;97559.63;29395;199;63004;-54
2023/09/25 00:03:59;;;;;;;0.50;0.50;;;;;;;10.38;74.76;97564.78;29395;398;63009;-54
2023/09/25 00:04:30;;;;;;;0.50;0.50;;;;;;;10.39;74.15;97560.16;29394;504;64009;-54
2023/09/25 00:05:01;;;;;;;0.50;0.50;;;;;;;10.41;73.40;97558.78;29395;316;63009;-54
2023/09/25 00:05:33;;;;;;;0.50;0.50;;;;;;;10.42;73.40;97559.59;29395;196;63004;-54
2023/09/25 00:06:04;;;;;;;0.50;0.50;;;;;;;10.41;73.37;97556.06;29395;205;63024;-54
2023/09/25 00:06:36;;;;;;;0.50;0.50;;;;;;;10.43;74.24;97563.13;29395;494;63005;-54
2023/09/25 00:07:08;;;;;;;0.50;0.50;;;;;;;10.40;75.23;97570.72;29394;411;64009;-54
2023/09/25 00:07:40;;;;;;;0.50;0.50;;;;;;;10.39;75.50;97562.87;29395;270;63001;-54
2023/09/25 00:08:11;;;;;;;0.50;0.50;;;;;;;10.39;74.85;97562.87;29395;349;63009;-54
2023/09/25 00:08:43;;;;;;;0.50;0.50;;;;;;;10.39;76.31;97568.31;29394;384;64009;-54
2023/09/25 00:09:14;;;;;;;0.50;0.50;;;;;;;10.37;75.75;97565.06;29395;501;63009;-56
2023/09/25 00:09:49;;;;;;;0.50;0.50;;;;;;;10.37;75.40;97559.63;29395;279;63005;-54
2023/09/25 00:10:21;;;;;;;0.50;0.50;;;;;;;10.36;75.41;97558.81;29395;424;63009;-54
2023/09/25 00:10:53;;;;;;;0.50;0.50;;;;;;;10.37;75.49;97565.06;29394;253;64009;-54
2023/09/25 00:11:25;;;;;;;0.50;0.50;;;;;;;10.36;75.71;97558.00;29395;218;63009;-54
2023/09/25 00:11:57;;;;;;;0.50;0.50;;;;;;;10.34;75.97;97561.00;29395;198;63004;-55
2023/09/25 00:12:28;;;;;;;0.50;0.50;;;;;;;10.32;76.01;97563.16;29395;229;63009;-54
2023/09/25 00:13:00;;;;;;;0.50;0.50;;;;;;;10.31;76.13;97569.69;29395;384;63004;-55
2023/09/25 00:13:32;;;;;;;0.50;0.50;;;;;;;10.31;76.47;97566.16;29395;218;63008;-54
2023/09/25 00:14:03;;;;;;;0.50;0.50;;;;;;;10.29;76.40;97568.31;29395;275;63005;-54
2023/09/25 00:14:34;;;;;;;0.50;0.50;;;;;;;10.27;76.59;97562.34;29395;407;63009;-54
2023/09/25 00:15:07;;;;;;;0.50;0.50;;;;;;;10.25;77.45;97567.25;29395;511;63005;-53
2023/09/25 00:15:43;;;;;;;0.50;0.50;;;;;;;10.23;77.68;97564.00;29395;248;63009;-54
2023/09/25 00:16:16;;;;;;;0.50;0.50;;;;;;;10.21;78.09;97566.16;29394;199;64009;-55
2023/09/25 00:16:48;;;;;;;0.50;0.50;;;;;;;10.16;77.89;97558.00;29395;197;63009;-54
2023/09/25 00:17:19;;;;;;;0.50;0.50;;;;;;;10.19;78.24;97568.31;29395;279;63005;-54
2023/09/25 00:17:51;;;;;;;0.50;0.50;;;;;;;10.16;78.56;97558.81;29395;226;63009;-54
2023/09/25 00:18:23;;;;;;;0.50;0.50;;;;;;;10.15;78.77;97557.19;29394;223;64009;-54
2023/09/25 00:18:55;;;;;;;0.50;0.50;;;;;;;10.13;79.05;97556.66;29395;254;63018;-54
2023/09/25 00:19:26;;;;;;;0.50;0.50;;;;;;;10.11;79.01;97558.81;29395;419;63004;-54
2023/09/25 00:19:57;;;;;;;0.50;0.50;;;;;;;10.07;79.87;97566.69;29395;198;63009;-55
2023/09/25 00:20:28;;;;;;;0.50;0.50;;;;;;;10.05;79.65;97565.31;29395;218;63004;-55
2023/09/25 00:21:01;;;;;;;0.50;0.50;;;;;;;10.03;79.38;97564.81;29395;287;63008;-54
2023/09/25 00:21:34;;;;;;;0.50;0.50;;;;;;;10.01;79.19;97559.66;29395;216;63005;-54
2023/09/25 00:22:05;;;;;;;0.50;0.50;;;;;;;10.00;79.46;97571.59;29394;256;64014;-54
2023/09/25 00:22:37;;;;;;;0.50;0.50;;;;;;;9.98;79.49;97562.09;29395;467;63005;-54
2023/09/25 00:23:09;;;;;;;0.50;0.50;;;;;;;9.97;79.26;97561.28;29395;232;63009;-54
2023/09/25 00:23:40;;;;;;;0.50;0.50;;;;;;;9.97;78.88;97563.19;29395;198;63005;-54
2023/09/25 00:24:12;;;;;;;0.50;0.50;;;;;;;9.97;79.11;97561.28;29395;232;63027;-54
2023/09/25 00:24:44;;;;;;;0.50;0.50;;;;;;;9.97;79.42;97560.47;29395;197;63005;-54
2023/09/25 00:25:15;;;;;;;0.50;0.50;;;;;;;9.96;79.66;97564.28;29396;210;63009;-54
2023/09/25 00:25:47;;;;;;;0.50;0.50;;;;;;;9.93;79.62;97562.09;29395;227;63016;-54
2023/09/25 00:26:19;;;;;;;0.50;0.50;;;;;;;9.92;79.39;97563.19;29395;213;63009;-54
2023/09/25 00:26:50;;;;;;;0.50;0.50;;;;;;;9.90;79.09;97560.75;29395;269;63004;-54
2023/09/25 00:27:21;;;;;;;0.50;0.50;;;;;;;9.87;79.12;97555.88;29394;224;64013;-70
2023/09/25 00:27:53;;;;;;;0.50;0.50;;;;;;;9.89;79.83;97564.53;29394;216;64008;-54
2023/09/25 00:28:24;;;;;;;0.50;0.50;;;;;;;9.88;80.17;97562.09;29395;217;63008;-54
2023/09/25 00:28:55;;;;;;;0.50;0.50;;;;;;;9.86;79.81;97553.44;29395;234;63005;-54
2023/09/25 00:29:26;;;;;;;0.55;0.55;;;;;;;9.84;80.12;97553.69;29395;202;63018;-54
2023/09/25 00:30:05;;;;;;;0.60;0.60;;;;;;;9.85;79.37;97557.22;29395;199;63005;-54
2023/09/25 00:30:37;;;;;;;0.50;0.50;;;;;;;9.83;79.05;97549.34;29395;389;63009;-54
2023/09/25 00:31:08;;;;;;;0.50;0.50;;;;;;;9.84;78.82;97556.41;29395;261;63005;-69
2023/09/25 00:31:40;;;;;;;0.50;0.50;;;;;;;9.84;78.75;97559.12;29395;349;63009;-54
2023/09/25 00:32:11;;;;;;;0.50;0.50;;;;;;;9.83;78.68;97557.50;29395;228;63004;-69
2023/09/25 00:32:42;;;;;;;0.50;0.50;;;;;;;9.81;78.75;97548.81;29395;273;63009;-54
2023/09/25 00:33:14;;;;;;;0.50;0.50;;;;;;;9.82;78.76;97555.88;29394;416;64009;-54
2023/09/25 00:33:46;;;;;;;0.50;0.50;;;;;;;9.80;78.82;97549.91;29395;612;63009;-54
2023/09/25 00:34:17;;;;;;;0.50;0.50;;;;;;;9.80;78.81;97547.19;29394;237;64009;-54
2023/09/25 00:34:48;;;;;;;0.50;0.50;;;;;;;9.80;79.32;97549.09;29394;546;64004;-54
2023/09/25 00:35:20;;;;;;;0.50;0.50;;;;;;;9.79;78.90;97553.69;29395;532;63004;-54
2023/09/25 00:35:53;;;;;;;0.50;0.50;;;;;;;9.78;79.15;97554.78;29395;231;63008;-70
2023/09/25 00:36:25;;;;;;;0.50;0.50;;;;;;;9.78;79.24;97552.06;29395;469;63005;-54
2023/09/25 00:36:56;;;;;;;0.60;0.60;;;;;;;9.78;78.87;97549.34;29395;209;63009;-54
2023/09/25 00:37:29;;;;;;;0.50;0.50;;;;;;;9.79;79.31;97550.97;29395;198;63005;-54
2023/09/25 00:38:03;;;;;;;0.50;0.50;;;;;;;9.79;78.86;97552.88;29395;199;63009;-70
2023/09/25 00:38:35;;;;;;;0.50;0.50;;;;;;;9.79;78.77;97548.28;29394;251;64009;-54
2023/09/25 00:39:07;;;;;;;0.50;0.50;;;;;;;9.81;78.17;97551.53;29394;255;64013;-54
2023/09/25 00:39:38;;;;;;;0.50;0.50;;;;;;;9.82;78.03;97552.34;29395;470;63004;-54
2023/09/25 00:40:13;;;;;;;0.50;0.50;;;;;;;9.83;77.53;97548.53;29395;329;63004;-54
2023/09/25 00:40:47;;;;;;;0.50;0.50;;;;;;;9.83;78.53;97543.94;29395;197;63004;-54
2023/09/25 00:41:21;;;;;;;0.50;0.50;;;;;;;9.84;78.48;97550.97;29395;202;63009;-55
2023/09/25 00:41:54;;;;;;;0.50;0.50;;;;;;;9.84;80.69;97559.12;29395;198;63004;-70
2023/09/25 00:42:26;;;;;;;0.50;0.50;;;;;;;9.82;80.01;97552.34;29395;229;63008;-54
2023/09/25 00:42:58;;;;;;;0.50;0.50;;;;;;;9.81;80.15;97551.53;29395;475;63005;-71
2023/09/25 00:43:29;;;;;;;0.50;0.50;;;;;;;9.80;81.24;97558.03;29395;313;63009;-71
2023/09/25 00:44:04;;;;;;;0.60;0.60;;;;;;;9.78;81.17;97552.06;29394;245;64009;-54
2023/09/25 00:44:35;;;;;;;0.50;0.50;;;;;;;9.77;80.73;97553.16;29395;228;63009;-54
2023/09/25 00:45:07;;;;;;;0.50;0.50;;;;;;;9.76;80.52;97554.22;29395;441;63005;-55
2023/09/25 00:45:40;;;;;;;0.50;0.50;;;;;;;9.75;79.96;97553.41;29395;461;63009;-54
2023/09/25 00:46:13;;;;;;;0.50;0.50;;;;;;;9.75;79.59;97552.59;29394;199;64002;-55
2023/09/25 00:46:44;;;;;;;0.60;0.60;;;;;;;9.75;79.40;97552.59;29395;354;63020;-54
2023/09/25 00:47:15;;;;;;;0.80;0.80;;;;;;;9.74;79.92;97554.50;29395;307;63004;-54
2023/09/25 00:47:49;;;;;;;0.55;0.55;;;;;;;9.73;79.83;97554.78;29395;225;63009;-54
2023/09/25 00:48:28;;;;;;;0.50;0.50;;;;;;;9.72;80.08;97553.16;29395;212;63004;-54
2023/09/25 00:49:00;;;;;;;0.50;0.50;;;;;;;9.70;80.38;97555.34;29395;239;63009;-54
2023/09/25 00:49:32;;;;;;;0.50;0.50;;;;;;;9.69;80.28;97549.09;29395;197;63004;-54
2023/09/25 00:50:05;;;;;;;0.50;0.50;;;;;;;9.69;80.46;97548.28;29395;218;63008;-54
2023/09/25 00:50:37;;;;;;;0.50;0.50;;;;;;;9.68;80.32;97552.91;29395;222;63005;-54
2023/09/25 00:51:09;;;;;;;0.50;0.50;;;;;;;9.69;81.10;97553.72;29395;221;63009;-54
2023/09/25 00:51:44;;;;;;;0.50;0.50;;;;;;;9.68;81.28;97557.50;29394;316;64009;-54
2023/09/25 00:52:16;;;;;;;0.50;0.50;;;;;;;9.69;81.39;97548.28;29395;267;63009;-70
2023/09/25 00:52:47;;;;;;;0.50;0.50;;;;;;;9.68;81.44;97552.91;29395;219;63005;-54
2023/09/25 00:53:19;;;;;;;0.50;0.50;;;;;;;9.66;81.23;97560.50;29395;281;63009;-53
2023/09/25 00:53:50;;;;;;;0.50;0.50;;;;;;;9.67;81.93;97553.16;29395;198;63005;-55
2023/09/25 00:54:22;;;;;;;0.50;0.50;;;;;;;9.66;81.89;97554.25;29394;419;64013;-54
2023/09/25 00:54:53;;;;;;;0.57;0.57;;;;;;;9.65;81.78;97558.03;29395;196;63004;-54
2023/09/25 00:55:27;;;;;;;0.50;0.50;;;;;;;9.62;81.67;97553.16;29395;219;63009;-54
2023/09/25 00:55:58;;;;;;;0.50;0.50;;;;;;;9.61;81.67;97557.78;29395;241;63004;-54
2023/09/25 00:56:30;;;;;;;0.50;0.50;;;;;;;9.62;81.24;97558.59;29395;265;63009;-54
2023/09/25 00:57:02;;;;;;;0.55;0.55;;;;;;;9.61;80.78;97556.97;29395;223;63004;-54
2023/09/25 00:57:34;;;;;;;0.50;0.50;;;;;;;9.61;81.20;97559.66;29395;272;63008;-54
2023/09/25 00:58:07;;;;;;;0.50;0.50;;;;;;;9.60;81.55;97555.34;29394;269;64009;-69
2023/09/25 00:58:39;;;;;;;0.50;0.50;;;;;;;9.59;81.73;97561.81;29395;211;63009;-54
2023/09/25 00:59:11;;;;;;;0.50;0.50;;;;;;;9.58;81.52;97557.50;29394;267;64009;-54
2023/09/25 00:59:43;;;;;;;0.50;0.50;;;;;;;9.58;82.13;97557.50;29395;202;63024;-54
2023/09/25 01:00:17;;;;;;;0.50;0.50;;;;;;;9.56;81.95;97554.25;29395;256;63005;-54
2023/09/25 01:00:49;;;;;;;0.50;0.50;;;;;;;9.55;81.69;97558.03;29395;236;63009;-54
2023/09/25 01:01:21;;;;;;;0.50;0.50;;;;;;;9.53;82.20;97554.78;29395;208;63005;-55
2023/09/25 01:01:53;;;;;;;0.50;0.50;;;;;;;9.53;82.20;97560.19;29395;253;63018;-55
2023/09/25 01:02:24;;;;;;;0.50;0.50;;;;;;;9.51;82.17;97565.06;29394;202;64009;-54
2023/09/25 01:02:56;;;;;;;0.50;0.50;;;;;;;9.50;82.09;97552.59;29395;210;63009;-54
2023/09/25 01:03:27;;;;;;;0.50;0.50;;;;;;;9.50;82.23;97560.72;29395;274;63004;-54
2023/09/25 01:03:59;;;;;;;0.50;0.50;;;;;;;9.48;82.49;97552.88;29395;202;63009;-55
2023/09/25 01:04:30;;;;;;;0.50;0.50;;;;;;;9.48;82.81;97563.72;29394;213;64000;-54
2023/09/25 01:05:03;;;;;;;0.50;0.50;;;;;;;9.47;82.27;97558.56;29395;215;63008;-54
2023/09/25 01:05:37;;;;;;;0.50;0.50;;;;;;;9.45;82.17;97558.00;29395;234;63005;-54
2023/09/25 01:06:08;;;;;;;0.50;0.50;;;;;;;9.40;82.03;97556.09;29395;267;63009;-54
2023/09/25 01:06:43;;;;;;;0.50;0.50;;;;;;;9.39;82.62;97558.00;29394;240;64009;-54
2023/09/25 01:07:18;;;;;;;0.50;0.50;;;;;;;9.37;82.78;97557.47;29394;198;64013;-54
2023/09/25 01:07:49;;;;;;;0.50;0.50;;;;;;;9.37;83.43;97553.94;29395;252;63005;-54
2023/09/25 01:08:20;;;;;;;0.50;0.50;;;;;;;9.35;83.78;97551.53;29395;206;63009;-54
2023/09/25 01:08:52;;;;;;;0.50;0.50;;;;;;;9.33;83.36;97553.69;29395;251;63005;-54
2023/09/25 01:09:23;;;;;;;0.50;0.50;;;;;;;9.33;83.43;97556.41;29395;211;63009;-54
2023/09/25 01:10:18;;;;;;;0.50;0.50;;;;;;;9.32;83.66;97554.75;29394;220;64009;-54
2023/09/25 01:10:49;;;;;;;0.52;0.52;;;;;;;9.30;84.08;97556.94;29395;234;63009;-54
2023/09/25 01:11:22;;;;;;;0.60;0.60;;;;;;;9.30;84.22;97556.94;29395;208;63004;-54
2023/09/25 01:11:57;;;;;;;0.50;0.50;;;;;;;9.27;84.02;97560.16;29395;255;63009;-54
2023/09/25 01:12:28;;;;;;;0.50;0.50;;;;;;;9.25;83.82;97553.38;29394;241;64008;-56
2023/09/25 01:13:01;;;;;;;0.60;0.60;;;;;;;9.25;83.39;97553.38;29395;228;63008;-54
2023/09/25 01:13:32;;;;;;;0.50;0.50;;;;;;;9.25;83.41;97554.22;29395;242;63005;-54
2023/09/25 01:14:03;;;;;;;0.60;0.60;;;;;;;9.26;83.55;97558.53;29395;223;63018;-54
2023/09/25 01:14:34;;;;;;;0.60;0.60;;;;;;;9.25;83.70;97556.91;29395;256;63005;-54
2023/09/25 01:15:07;;;;;;;0.50;0.50;;;;;;;9.24;84.04;97558.00;29395;256;63009;-54
2023/09/25 01:15:38;;;;;;;0.50;0.50;;;;;;;9.23;83.99;97561.78;29395;229;63005;-56
2023/09/25 01:16:10;;;;;;;0.50;0.50;;;;;;;9.21;84.43;97553.09;29395;202;63009;-53
2023/09/25 01:16:42;;;;;;;0.50;0.50;;;;;;;9.19;84.17;97555.28;29395;255;63005;-54
2023/09/25 01:17:13;;;;;;;0.50;0.50;;;;;;;9.18;83.98;97556.34;29395;210;63009;-54
2023/09/25 01:17:45;;;;;;;0.50;0.50;;;;;;;9.19;83.91;97555.28;29394;202;64009;-54
2023/09/25 01:18:17;;;;;;;0.50;0.50;;;;;;;9.20;84.67;97556.09;29395;244;63021;-54
2023/09/25 01:18:48;;;;;;;0.50;0.50;;;;;;;9.20;84.63;97556.91;29395;208;63004;-55
2023/09/25 01:19:23;;;;;;;0.50;0.50;;;;;;;9.21;85.33;97553.09;29395;252;63009;-54
2023/09/25 01:19:54;;;;;;;0.60;0.60;;;;;;;9.20;84.70;97556.91;29395;268;63004;-54
2023/09/25 01:20:30;;;;;;;0.50;0.50;;;;;;;9.21;84.75;97547.69;29395;255;63008;-54
2023/09/25 01:21:03;;;;;;;0.50;0.50;;;;;;;9.21;84.92;97555.81;29395;275;63005;-54
2023/09/25 01:21:35;;;;;;;0.50;0.50;;;;;;;9.20;84.75;97551.47;29395;203;63009;-54
2023/09/25 01:22:06;;;;;;;0.50;0.50;;;;;;;9.21;84.12;97546.87;29395;253;63005;-54
2023/09/25 01:22:39;;;;;;;0.50;0.50;;;;;;;9.24;83.88;97546.34;29395;202;63009;-54
2023/09/25 01:23:10;;;;;;;0.50;0.50;;;;;;;9.25;83.55;97550.69;29394;207;64009;-54
2023/09/25 01:23:41;;;;;;;0.50;0.50;;;;;;;9.25;83.61;97547.97;29395;245;63009;-54
2023/09/25 01:24:13;;;;;;;0.50;0.50;;;;;;;9.24;83.88;97555.28;29395;224;63005;-70
2023/09/25 01:24:44;;;;;;;0.50;0.50;;;;;;;9.23;83.85;97553.66;29395;196;63009;-54
2023/09/25 01:25:17;;;;;;;0.50;0.50;;;;;;;9.22;84.03;97549.31;29394;202;64009;-54
2023/09/25 01:25:48;;;;;;;0.50;0.50;;;;;;;9.22;83.91;97549.31;29394;229;64013;-54
2023/09/25 01:26:39;;;;;;;0.60;0.60;;;;;;;9.20;84.23;97556.09;29417;203;63004;-54
2023/09/25 01:27:11;;;;;;;0.50;0.50;;;;;;;9.20;84.32;97548.78;29394;202;64013;-54
2023/09/25 01:27:44;;;;;;;0.50;0.50;;;;;;;9.20;84.73;97550.66;29395;238;63004;-54
2023/09/25 01:28:15;;;;;;;0.55;0.55;;;;;;;9.19;84.47;97549.84;29395;229;63009;-70
2023/09/25 01:28:46;;;;;;;0.50;0.50;;;;;;;9.19;84.24;97543.62;29394;228;64009;-54
2023/09/25 01:29:20;;;;;;;0.57;0.57;;;;;;;9.20;83.98;97551.47;29395;202;63009;-54
2023/09/25 01:29:51;;;;;;;0.50;0.50;;;;;;;9.20;84.08;97546.06;29395;352;63005;-70
2023/09/25 01:30:23;;;;;;;0.50;0.50;;;;;;;9.20;83.87;97554.19;29395;199;63009;-54
2023/09/25 01:30:55;;;;;;;0.50;0.50;;;;;;;9.21;83.50;97542.28;29394;199;64009;-54
2023/09/25 01:31:26;;;;;;;0.50;0.50;;;;;;;9.21;83.25;97547.69;29395;242;63009;-54
2023/09/25 01:32:00;;;;;;;0.55;0.55;;;;;;;9.21;83.30;97542.28;29395;253;63005;-69
2023/09/25 01:32:31;;;;;;;0.50;0.50;;;;;;;9.23;82.97;97548.25;29395;243;63009;-54
2023/09/25 01:33:04;;;;;;;0.50;0.50;;;;;;;9.24;82.68;97541.75;29395;228;63004;-54
2023/09/25 01:33:35;;;;;;;0.50;0.50;;;;;;;9.25;83.42;97542.56;29395;207;63009;-54
2023/09/25 01:34:07;;;;;;;0.50;0.50;;;;;;;9.25;83.26;97543.38;29395;223;63004;-71
2023/09/25 01:34:38;;;;;;;0.50;0.50;;;;;;;9.24;83.32;97541.75;29395;196;63009;-70
2023/09/25 01:35:14;;;;;;;0.50;0.50;;;;;;;9.23;83.41;97540.13;29395;229;63005;-70
2023/09/25 01:35:46;;;;;;;0.50;0.50;;;;;;;9.23;83.16;97540.13;29394;198;64014;-54
2023/09/25 01:36:21;;;;;;;0.50;0.50;;;;;;;9.24;83.22;97541.75;29395;203;63005;-54
2023/09/25 01:36:52;;;;;;;0.50;0.50;;;;;;;9.24;83.17;97541.75;29395;199;63009;-54
2023/09/25 01:37:24;;;;;;;0.50;0.50;;;;;;;9.24;83.54;97547.16;29395;202;63005;-53
2023/09/25 01:38:00;;;;;;;0.50;0.50;;;;;;;9.22;83.59;97541.19;29395;196;63009;-70
2023/09/25 01:38:31;;;;;;;0.47;0.47;;;;;;;9.21;84.30;97539.56;29394;197;64009;-54
2023/09/25 01:39:08;;;;;;;0.50;0.50;;;;;;;9.21;84.55;97536.88;29394;257;64013;-53
2023/09/25 01:39:40;;;;;;;0.50;0.50;;;;;;;9.20;84.62;97551.47;29395;226;63004;-55
2023/09/25 01:40:15;;;;;;;0.50;0.50;;;;;;;9.18;84.75;97537.41;29395;251;63009;-55
2023/09/25 01:40:47;;;;;;;0.50;0.50;;;;;;;9.18;84.46;97542.81;29395;196;63004;-53
2023/09/25 01:41:18;;;;;;;0.50;0.50;;;;;;;9.16;83.94;97539.56;29394;220;64013;-53
2023/09/25 01:41:49;;;;;;;0.50;0.50;;;;;;;9.16;84.19;97538.75;29395;262;63004;-53
2023/09/25 01:42:21;;;;;;;0.50;0.50;;;;;;;9.16;84.26;97536.84;29395;239;63008;-53
2023/09/25 01:42:53;;;;;;;0.55;0.55;;;;;;;9.15;83.21;97537.13;29395;220;63005;-53
2023/09/25 01:43:24;;;;;;;0.50;0.50;;;;;;;9.15;83.79;97531.69;29395;245;63009;-53
2023/09/25 01:43:55;;;;;;;0.50;0.50;;;;;;;9.16;83.87;97528.72;29395;219;63001;-53
2023/09/25 01:44:27;;;;;;;0.50;0.50;;;;;;;9.17;83.76;97530.34;29395;264;63009;-53
2023/09/25 01:44:58;;;;;;;0.50;0.50;;;;;;;9.18;83.16;97526.56;29394;256;64009;-54
2023/09/25 01:45:29;;;;;;;0.50;0.50;;;;;;;9.20;82.50;97532.53;29395;230;63009;-54
2023/09/25 01:46:03;;;;;;;0.50;0.50;;;;;;;9.22;82.30;97527.66;29395;197;63005;-54
2023/09/25 01:46:34;;;;;;;0.50;0.50;;;;;;;9.24;82.26;97524.69;29395;212;63009;-54
2023/09/25 01:47:06;;;;;;;0.50;0.50;;;;;;;9.26;82.14;97520.62;29395;249;63004;-54
2023/09/25 01:47:39;;;;;;;0.60;0.60;;;;;;;9.29;82.41;97527.41;29395;228;63024;-54
2023/09/25 01:48:11;;;;;;;0.60;0.60;;;;;;;9.29;82.03;97522.00;29395;269;63004;-54
2023/09/25 01:48:43;;;;;;;0.50;0.50;;;;;;;9.31;82.09;97520.62;29395;209;63025;-54
2023/09/25 01:49:18;;;;;;;0.60;0.60;;;;;;;9.33;81.86;97520.38;29395;217;63004;-54
2023/09/25 01:49:53;;;;;;;0.60;0.60;;;;;;;9.36;81.85;97523.31;29395;267;63008;-53
2023/09/25 01:50:27;;;;;;;0.50;0.50;;;;;;;9.39;81.64;97519.28;29394;275;64009;-54
2023/09/25 01:50:58;;;;;;;0.50;0.50;;;;;;;9.39;80.55;97517.38;29395;235;63009;-54
2023/09/25 01:51:29;;;;;;;0.60;0.60;;;;;;;9.39;79.75;97514.66;29395;210;63005;-54
2023/09/25 01:52:07;;;;;;;0.60;0.60;;;;;;;9.40;79.56;97519.00;29395;252;63009;-54
2023/09/25 01:52:40;;;;;;;0.57;0.57;;;;;;;9.41;79.42;97509.78;29395;218;63015;-56
2023/09/25 01:53:11;;;;;;;0.60;0.60;;;;;;;9.47;79.75;97507.09;29395;242;63009;-55
2023/09/25 01:53:46;;;;;;;0.60;0.60;;;;;;;9.51;79.52;97503.56;29395;247;63005;-54
2023/09/25 01:54:17;;;;;;;0.50;0.50;;;;;;;9.55;78.69;97503.84;29395;252;63009;-54
2023/09/25 01:54:51;;;;;;;0.50;0.50;;;;;;;9.59;78.28;97513.06;29395;250;63004;-54
2023/09/25 01:55:22;;;;;;;0.60;0.60;;;;;;;9.61;77.90;97505.47;29395;232;63018;-54
2023/09/25 01:55:53;;;;;;;0.52;0.52;;;;;;;9.64;77.70;97507.66;29394;251;64009;-55
2023/09/25 01:56:25;;;;;;;0.50;0.50;;;;;;;9.66;77.80;97505.47;29396;210;63009;-54
2023/09/25 01:56:56;;;;;;;0.50;0.50;;;;;;;9.67;77.83;97510.63;29395;272;63004;-54
2023/09/25 01:57:28;;;;;;;0.50;0.50;;;;;;;9.67;78.35;97507.09;29395;198;63008;-54
2023/09/25 01:57:59;;;;;;;0.50;0.50;;;;;;;9.67;78.41;97501.69;29395;227;63005;-54
2023/09/25 01:58:30;;;;;;;0.50;0.50;;;;;;;9.66;78.48;97500.06;29395;227;63009;-54
2023/09/25 01:59:02;;;;;;;0.50;0.50;;;;;;;9.67;78.44;97501.69;29395;245;63005;-54
2023/09/25 01:59:33;;;;;;;0.50;0.50;;;;;;;9.68;78.67;97503.31;29395;221;63009;-54
2023/09/25 02:00:10;;;;;;;0.50;0.50;;;;;;;9.67;78.96;97505.22;29394;221;64005;-54
2023/09/25 02:00:44;;;;;;;0.50;0.50;;;;;;;9.67;79.14;97502.50;29395;202;63009;-55
2023/09/25 02:01:16;;;;;;;0.50;0.50;;;;;;;9.63;79.71;97509.53;29394;253;64009;-54
2023/09/25 02:01:47;;;;;;;0.50;0.50;;;;;;;9.62;79.85;97504.41;29395;205;63009;-54
2023/09/25 02:02:19;;;;;;;0.50;0.50;;;;;;;9.61;79.73;97508.19;29395;236;63004;-54
2023/09/25 02:02:50;;;;;;;0.50;0.50;;;;;;;9.61;79.63;97508.19;29395;264;63009;-54
2023/09/25 02:03:21;;;;;;;0.60;0.60;;;;;;;9.61;80.14;97513.59;29395;281;63004;-54
2023/09/25 02:03:53;;;;;;;0.50;0.50;;;;;;;9.60;80.02;97506.56;29395;260;63009;-55
2023/09/25 02:04:27;;;;;;;0.55;0.55;;;;;;;9.58;80.35;97504.12;29395;221;63004;-55
2023/09/25 02:04:59;;;;;;;0.50;0.50;;;;;;;9.57;80.48;97504.38;29395;262;63008;-55
2023/09/25 02:05:31;;;;;;;0.52;0.52;;;;;;;9.56;81.19;97500.06;29395;260;63005;-54
2023/09/25 02:06:03;;;;;;;0.50;0.50;;;;;;;9.53;81.25;97506.00;29395;219;63009;-54
2023/09/25 02:06:34;;;;;;;0.50;0.50;;;;;;;9.49;81.75;97505.75;29394;244;64009;-54
2023/09/25 02:07:06;;;;;;;0.50;0.50;;;;;;;9.46;82.18;97503.56;29395;309;63014;-54
2023/09/25 02:07:38;;;;;;;0.50;0.50;;;;;;;9.45;81.27;97509.25;29395;258;63005;-54
2023/09/25 02:08:10;;;;;;;0.55;0.55;;;;;;;9.45;81.10;97509.25;29395;234;63009;-53
2023/09/25 02:08:42;;;;;;;0.50;0.50;;;;;;;9.46;81.12;97505.47;29395;197;63005;-54
2023/09/25 02:09:14;;;;;;;0.50;0.50;;;;;;;9.45;81.14;97503.84;29395;208;63009;-54
2023/09/25 02:09:46;;;;;;;0.50;0.50;;;;;;;9.45;81.26;97511.97;29395;199;63004;-54
2023/09/25 02:10:18;;;;;;;0.50;0.50;;;;;;;9.43;81.84;97506.81;29395;202;63009;-70
2023/09/25 02:10:49;;;;;;;0.50;0.50;;;;;;;9.44;81.95;97518.47;29395;212;63004;-54
2023/09/25 02:11:20;;;;;;;0.50;0.50;;;;;;;9.41;82.04;97512.50;29394;208;64013;-54
2023/09/25 02:11:52;;;;;;;0.50;0.50;;;;;;;9.41;82.18;97515.22;29395;264;63004;-54
2023/09/25 02:12:23;;;;;;;0.50;0.50;;;;;;;9.41;82.49;97514.41;29395;210;63008;-54
2023/09/25 02:12:54;;;;;;;0.50;0.50;;;;;;;9.39;82.81;97516.56;29395;259;63005;-54
2023/09/25 02:13:26;;;;;;;0.50;0.50;;;;;;;9.38;82.29;97520.34;29395;259;63009;-54
2023/09/25 02:13:57;;;;;;;0.60;0.60;;;;;;;9.34;82.26;97520.09;29395;203;63005;-53
2023/09/25 02:14:29;;;;;;;0.52;0.52;;;;;;;9.31;82.70;97520.62;29395;197;63009;-54
2023/09/25 02:15:03;;;;;;;0.50;0.50;;;;;;;9.30;82.43;97512.78;29395;272;63005;-53
2023/09/25 02:15:34;;;;;;;0.60;0.60;;;;;;;9.27;82.62;97510.63;29395;233;63009;-70
2023/09/25 02:16:05;;;;;;;0.50;0.50;;;;;;;9.26;82.89;97511.69;29395;221;63005;-54
2023/09/25 02:16:37;;;;;;;0.50;0.50;;;;;;;9.24;83.12;97513.84;29394;269;64013;-53
2023/09/25 02:17:11;;;;;;;0.50;0.50;;;;;;;9.22;82.85;97514.13;29395;209;63004;-53
2023/09/25 02:17:43;;;;;;;0.50;0.50;;;;;;;9.21;82.93;97515.19;29395;204;63009;-54
2023/09/25 02:18:14;;;;;;;0.60;0.60;;;;;;;9.20;82.69;97519.00;29395;259;63004;-54
2023/09/25 02:18:45;;;;;;;0.50;0.50;;;;;;;9.18;82.52;97515.72;29395;198;63009;-54
2023/09/25 02:19:17;;;;;;;0.60;0.60;;;;;;;9.20;82.34;97507.34;29395;249;63004;-54
2023/09/25 02:19:48;;;;;;;0.55;0.55;;;;;;;9.21;82.49;97509.78;29395;245;63008;-54
2023/09/25 02:20:20;;;;;;;0.50;0.50;;;;;;;9.22;82.47;97511.41;29395;214;63005;-53
2023/09/25 02:20:51;;;;;;;0.50;0.50;;;;;;;9.19;82.63;97511.94;29395;268;63009;-54
2023/09/25 02:21:22;;;;;;;0.50;0.50;;;;;;;9.18;82.17;97512.22;29395;203;63007;-54
2023/09/25 02:21:55;;;;;;;0.50;0.50;;;;;;;9.15;82.30;97510.84;29394;278;64013;-54
2023/09/25 02:22:27;;;;;;;0.60;0.60;;;;;;;9.12;82.08;97511.38;29395;219;63005;-53
2023/09/25 02:22:58;;;;;;;0.50;0.50;;;;;;;9.10;82.46;97507.31;29395;204;63009;-54
2023/09/25 02:23:32;;;;;;;0.60;0.60;;;;;;;9.07;82.60;97505.97;29394;275;64005;-54
2023/09/25 02:24:04;;;;;;;0.50;0.50;;;;;;;9.05;83.17;97510.81;29394;212;64026;-54
2023/09/25 02:24:37;;;;;;;0.50;0.50;;;;;;;9.03;82.65;97507.56;29395;214;63004;-53
2023/09/25 02:25:09;;;;;;;0.50;0.50;;;;;;;9.02;82.72;97511.38;29395;197;63009;-53
2023/09/25 02:25:40;;;;;;;0.50;0.50;;;;;;;9.01;82.61;97510.53;29395;239;63004;-53
2023/09/25 02:26:11;;;;;;;0.52;0.52;;;;;;;9.03;82.90;97518.41;29395;205;63009;-53
2023/09/25 02:26:42;;;;;;;0.50;0.50;;;;;;;9.01;82.87;97509.72;29394;251;64004;-54
2023/09/25 02:27:17;;;;;;;0.50;0.50;;;;;;;9.01;82.86;97515.16;29394;249;64013;-53
2023/09/25 02:27:48;;;;;;;0.50;0.50;;;;;;;9.00;82.81;97518.97;29395;202;63005;-54
2023/09/25 02:28:19;;;;;;;0.50;0.50;;;;;;;9.00;82.97;97513.56;29395;249;63009;-53
2023/09/25 02:28:51;;;;;;;0.52;0.52;;;;;;;8.99;82.75;97514.63;29395;249;63005;-53
2023/09/25 02:29:22;;;;;;;0.50;0.50;;;;;;;8.96;83.29;97515.16;29395;250;63009;-54
2023/09/25 02:29:53;;;;;;;0.50;0.50;;;;;;;8.96;82.80;97517.88;29395;218;63005;-55
2023/09/25 02:30:24;;;;;;;0.50;0.50;;;;;;;8.92;83.37;97511.38;29395;236;63009;-54
2023/09/25 02:30:56;;;;;;;0.50;0.50;;;;;;;8.90;83.07;97508.91;29395;241;63005;-54
2023/09/25 02:31:27;;;;;;;0.50;0.50;;;;;;;8.89;83.24;97518.13;29395;214;63009;-54
2023/09/25 02:31:58;;;;;;;0.50;0.50;;;;;;;8.89;83.37;97512.69;29395;219;63004;-53
2023/09/25 02:32:29;;;;;;;0.50;0.50;;;;;;;8.89;83.20;97511.88;29394;254;64013;-54
2023/09/25 02:33:00;;;;;;;0.50;0.50;;;;;;;8.87;83.43;97514.06;29395;221;63004;-54
2023/09/25 02:33:32;;;;;;;0.50;0.50;;;;;;;8.85;83.81;97516.22;29395;202;63009;-54
2023/09/25 02:34:03;;;;;;;0.50;0.50;;;;;;;8.83;83.55;97515.66;29395;213;63004;-54
2023/09/25 02:34:34;;;;;;;0.50;0.50;;;;;;;8.84;83.52;97514.56;29395;212;63012;-54
2023/09/25 02:35:07;;;;;;;0.50;0.50;;;;;;;8.87;83.62;97519.47;29395;256;63004;-54